createdAt,value
2022-11-29T00:00:37.199Z,64.67
2022-11-29T00:05:39.585Z,65.22
2022-11-29T00:11:00.164Z,65.16
2022-11-29T00:16:04.952Z,64.77
2022-11-29T00:21:08.909Z,64.77
2022-11-29T00:26:11.387Z,64.83
2022-11-29T00:31:26.362Z,64.86
2022-11-29T00:36:28.895Z,64.56
2022-11-29T00:41:32.046Z,64.09
2022-11-29T00:46:34.356Z,64.53
2022-11-29T00:51:36.851Z,64.99
2022-11-29T00:56:39.575Z,64.78
2022-11-29T01:01:41.953Z,65.08
2022-11-29T01:06:44.260Z,65.40
2022-11-29T01:11:46.532Z,65.18
2022-11-29T01:16:48.888Z,65.56
2022-11-29T01:21:51.229Z,65.53
2022-11-29T01:26:53.407Z,65.24
2022-11-29T01:31:55.649Z,65.40
2022-11-29T01:36:58.154Z,65.44
2022-11-29T01:42:01.376Z,65.64
2022-11-29T01:47:03.894Z,65.42
2022-11-29T01:52:13.712Z,65.72
2022-11-29T01:57:17.289Z,65.77
2022-11-29T02:02:27.457Z,65.52
2022-11-29T02:07:29.921Z,65.57
2022-11-29T02:12:55.229Z,65.80
2022-11-29T02:18:09.041Z,65.44
2022-11-29T02:23:35.449Z,65.75
2022-11-29T02:28:55.777Z,65.27
2022-11-29T02:34:32.865Z,65.32
2022-11-29T02:39:53.809Z,65.86
2022-11-29T02:45:13.503Z,65.80
2022-11-29T02:50:24.648Z,65.11
2022-11-29T02:55:35.029Z,65.54
2022-11-29T03:00:47.752Z,64.89
2022-11-29T03:06:15.780Z,65.29
2022-11-29T03:11:18.235Z,64.54
2022-11-29T03:16:59.814Z,65.01
2022-11-29T03:22:12.671Z,64.84
2022-11-29T03:27:21.753Z,64.80
2022-11-29T03:32:32.530Z,64.41
2022-11-29T03:38:16.254Z,64.71
2022-11-29T03:43:31.385Z,64.91
2022-11-29T03:48:52.002Z,64.57
2022-11-29T03:54:13.855Z,64.61
2022-11-29T03:59:16.199Z,63.98
2022-11-29T04:04:55.409Z,64.21
2022-11-29T04:10:12.793Z,63.71
2022-11-29T04:15:52.359Z,63.90
2022-11-29T04:21:25.362Z,63.71
2022-11-29T04:26:46.073Z,63.55
2022-11-29T04:31:54.495Z,64.08
2022-11-29T04:37:27.626Z,63.54
2022-11-29T04:42:29.955Z,63.54
2022-11-29T04:47:48.416Z,63.66
2022-11-29T04:52:56.905Z,63.63
2022-11-29T04:58:07.991Z,63.58
2022-11-29T05:03:25.016Z,63.37
2022-11-29T05:08:39.310Z,63.15
2022-11-29T05:13:56.964Z,62.86
2022-11-29T05:19:10.982Z,62.95
2022-11-29T05:24:57.815Z,62.63
2022-11-29T05:30:12.349Z,62.34
2022-11-29T05:35:45.275Z,62.77
2022-11-29T05:41:07.207Z,62.68
2022-11-29T05:46:27.955Z,62.32
2022-11-29T05:51:30.243Z,62.12
2022-11-29T05:56:53.995Z,62.28
2022-11-29T06:02:15.753Z,61.91
2022-11-29T06:07:31.207Z,61.42
2022-11-29T06:12:37.930Z,61.86
2022-11-29T06:17:49.492Z,61.30
2022-11-29T06:23:09.475Z,61.50
2022-11-29T06:28:42.464Z,61.49
2022-11-29T06:34:30.973Z,61.72
2022-11-29T06:39:33.692Z,62.13
2022-11-29T06:44:36.205Z,61.86
2022-11-29T06:49:54.070Z,61.95
2022-11-29T06:55:11.208Z,62.16
2022-11-29T07:00:45.856Z,62.13
2022-11-29T07:05:48.756Z,62.33
2022-11-29T07:10:54.507Z,62.32
2022-11-29T07:16:25.489Z,62.05
2022-11-29T07:21:27.764Z,61.95
2022-11-29T07:26:32.982Z,61.35
2022-11-29T07:31:56.988Z,61.40
2022-11-29T07:37:04.868Z,61.32
2022-11-29T07:42:26.580Z,61.64
2022-11-29T07:47:34.077Z,61.59
2022-11-29T07:52:37.849Z,61.51
2022-11-29T07:57:40.476Z,61.50
2022-11-29T08:02:43.182Z,61.38
2022-11-29T08:07:46.971Z,61.12
2022-11-29T08:12:51.893Z,61.50
2022-11-29T08:17:54.459Z,61.55
2022-11-29T08:22:58.874Z,61.47
2022-11-29T08:28:03.060Z,61.39
2022-11-29T08:33:05.516Z,61.93
2022-11-29T08:38:07.804Z,62.12
2022-11-29T08:43:10.103Z,62.38
2022-11-29T08:48:14.412Z,61.82
2022-11-29T08:53:35.118Z,61.64
2022-11-29T08:58:38.639Z,61.20
2022-11-29T09:03:59.787Z,61.42
2022-11-29T09:09:02.222Z,61.12
2022-11-29T09:14:07.286Z,60.91
2022-11-29T09:19:09.948Z,60.66
2022-11-29T09:24:12.451Z,60.75
2022-11-29T09:29:16.697Z,60.73
2022-11-29T09:34:19.159Z,60.53
2022-11-29T09:39:21.360Z,60.42
2022-11-29T09:44:46.729Z,60.22
2022-11-29T09:50:23.065Z,60.04
2022-11-29T09:55:50.020Z,59.44
2022-11-29T10:01:00.544Z,58.86
2022-11-29T10:06:17.819Z,58.42
2022-11-29T10:11:35.880Z,57.60
2022-11-29T10:16:53.069Z,57.36
2022-11-29T10:22:10.927Z,57.27
2022-11-29T10:27:27.525Z,56.97
2022-11-29T10:32:32.569Z,56.57
2022-11-29T10:37:35.395Z,55.83
2022-11-29T10:42:53.535Z,55.17
2022-11-29T10:48:02.484Z,55.65
2022-11-29T10:53:11.988Z,55.68
2022-11-29T10:58:18.729Z,54.95
2022-11-29T11:03:32.057Z,55.00
2022-11-29T11:08:36.203Z,55.81
2022-11-29T11:13:41.522Z,55.26
2022-11-29T11:18:45.193Z,55.08
2022-11-29T11:24:03.335Z,55.28
2022-11-29T11:29:06.097Z,55.06
2022-11-29T11:34:27.140Z,55.04
2022-11-29T11:39:29.676Z,54.62
2022-11-29T11:44:51.731Z,54.31
2022-11-29T11:50:08.630Z,53.96
2022-11-29T11:55:23.211Z,54.63
2022-11-29T12:01:03.369Z,54.00
2022-11-29T12:06:35.579Z,54.44
2022-11-29T12:11:53.903Z,54.10
2022-11-29T12:17:08.526Z,53.89
2022-11-29T12:22:16.788Z,53.71
2022-11-29T12:27:19.318Z,53.76
2022-11-29T12:32:36.313Z,53.32
2022-11-29T12:38:34.577Z,53.65
2022-11-29T12:43:55.109Z,53.73
2022-11-29T12:49:27.252Z,53.47
2022-11-29T12:54:44.351Z,53.37
2022-11-29T13:00:09.969Z,53.30
2022-11-29T13:05:25.111Z,53.37
2022-11-29T13:10:56.571Z,53.51
2022-11-29T13:16:20.530Z,53.60
2022-11-29T13:21:39.730Z,53.39
2022-11-29T13:26:43.653Z,53.62
2022-11-29T13:31:47.664Z,53.33
2022-11-29T13:37:22.714Z,53.72
2022-11-29T13:42:58.509Z,53.66
2022-11-29T13:48:02.667Z,54.58
2022-11-29T13:53:14.306Z,54.85
2022-11-29T13:58:18.091Z,54.82
2022-11-29T14:03:23.646Z,55.74
2022-11-29T14:09:01.989Z,55.22
2022-11-29T14:14:17.734Z,57.75
2022-11-29T14:19:33.072Z,59.96
2022-11-29T14:24:36.392Z,62.74
2022-11-29T14:29:50.625Z,62.98
2022-11-29T14:35:01.958Z,62.18
2022-11-29T14:40:33.999Z,62.34
2022-11-29T14:45:36.496Z,62.34
2022-11-29T14:50:42.722Z,62.41
2022-11-29T14:55:45.026Z,64.26
2022-11-29T15:00:50.174Z,64.17
2022-11-29T15:06:15.928Z,64.44
2022-11-29T15:11:32.544Z,65.38
2022-11-29T15:16:46.676Z,64.58
2022-11-29T15:22:17.374Z,62.55
2022-11-29T15:27:20.164Z,61.23
2022-11-29T15:32:32.973Z,60.23
2022-11-29T15:37:36.066Z,59.43
2022-11-29T15:42:44.125Z,59.43
2022-11-29T15:47:46.333Z,58.87
2022-11-29T15:52:48.777Z,58.69
2022-11-29T15:57:56.543Z,59.28
2022-11-29T16:03:01.838Z,59.08
2022-11-29T16:08:14.758Z,60.00
2022-11-29T16:13:58.525Z,60.03
2022-11-29T16:19:33.023Z,60.13
2022-11-29T16:24:37.223Z,59.98
2022-11-29T16:29:45.541Z,60.08
2022-11-29T16:34:48.177Z,59.91
2022-11-29T16:39:53.421Z,60.13
2022-11-29T16:45:32.663Z,60.54
2022-11-29T16:50:35.481Z,60.53
2022-11-29T16:55:37.699Z,60.42
2022-11-29T17:00:40.151Z,60.47
2022-11-29T17:05:44.859Z,60.18
2022-11-29T17:10:47.358Z,60.21
2022-11-29T17:15:49.705Z,60.50
2022-11-29T17:20:57.760Z,60.55
2022-11-29T17:26:01.016Z,60.71
2022-11-29T17:31:33.137Z,60.90
2022-11-29T17:36:35.732Z,60.85
2022-11-29T17:41:38.436Z,60.93
2022-11-29T17:46:41.755Z,61.01
2022-11-29T17:51:52.961Z,61.07
2022-11-29T17:56:55.781Z,61.73
2022-11-29T18:01:58.021Z,61.70
2022-11-29T18:07:01.997Z,62.33
2022-11-29T18:12:04.551Z,62.02
2022-11-29T18:17:06.927Z,62.48
2022-11-29T18:22:09.456Z,63.32
2022-11-29T18:27:11.872Z,62.51
2022-11-29T18:32:14.267Z,62.72
2022-11-29T18:37:32.821Z,64.14
2022-11-29T18:42:39.233Z,63.20
2022-11-29T18:47:41.443Z,63.65
2022-11-29T18:52:43.714Z,63.80
2022-11-29T18:57:49.485Z,63.92
2022-11-29T19:02:51.783Z,64.00
2022-11-29T19:07:54.136Z,63.75
2022-11-29T19:12:57.026Z,64.43
2022-11-29T19:17:59.529Z,63.65
2022-11-29T19:23:01.817Z,63.71
2022-11-29T19:28:05.902Z,64.38
2022-11-29T19:33:14.028Z,63.54
2022-11-29T19:38:16.233Z,63.67
2022-11-29T19:43:18.682Z,63.84
2022-11-29T19:48:21.143Z,64.06
2022-11-29T19:53:23.441Z,64.13
2022-11-29T19:58:26.002Z,64.13
2022-11-29T20:03:30.709Z,63.98
2022-11-29T20:08:33.237Z,64.87
2022-11-29T20:13:35.927Z,64.69
2022-11-29T20:18:40.236Z,66.22
2022-11-29T20:23:43.084Z,66.12
2022-11-29T20:28:47.303Z,66.48
2022-11-29T20:33:51.758Z,66.45
2022-11-29T20:39:01.284Z,66.98
2022-11-29T20:44:04.521Z,66.36
2022-11-29T20:49:07.154Z,66.29
2022-11-29T20:54:12.477Z,66.50
2022-11-29T20:59:14.889Z,66.07
2022-11-29T21:04:22.883Z,66.23
2022-11-29T21:09:26.284Z,66.57
2022-11-29T21:14:30.622Z,66.50
2022-11-29T21:19:33.344Z,67.01
2022-11-29T21:25:03.152Z,66.66
2022-11-29T21:30:09.458Z,66.49
2022-11-29T21:35:12.414Z,66.37
2022-11-29T21:40:15.913Z,67.10
2022-11-29T21:45:18.578Z,66.96
2022-11-29T21:50:22.712Z,67.33
2022-11-29T21:55:31.570Z,66.78
2022-11-29T22:00:37.581Z,67.05
2022-11-29T22:05:40.091Z,67.08
2022-11-29T22:10:42.388Z,67.24
2022-11-29T22:15:44.960Z,67.41
2022-11-29T22:20:49.985Z,67.94
2022-11-29T22:25:52.279Z,67.41
2022-11-29T22:31:05.662Z,67.05
2022-11-29T22:36:10.615Z,67.38
2022-11-29T22:41:14.371Z,68.25
2022-11-29T22:46:25.000Z,68.72
2022-11-29T22:51:31.099Z,70.15
2022-11-29T22:56:36.374Z,69.26
2022-11-29T23:01:40.357Z,68.41
2022-11-29T23:06:45.272Z,68.30
2022-11-29T23:11:54.051Z,68.00
2022-11-29T23:16:56.326Z,68.54
2022-11-29T23:21:58.898Z,69.06
2022-11-29T23:27:01.100Z,69.03
2022-11-29T23:32:03.533Z,68.48
2022-11-29T23:37:05.698Z,68.89
2022-11-29T23:42:08.038Z,68.70
2022-11-29T23:47:10.442Z,68.67
2022-11-29T23:52:13.102Z,68.56
2022-11-29T23:57:15.444Z,69.14
